Time;durP1;ratioP1;P1;durP2;ratioP2;P2;SDS_P1;SDS_P2;PMS_P1;PMS_P2;Temp;Humidity;BMP_temperature;BMP_pressure;BME280_temperature;BME280_humidity;BME280_pressure;Samples;Min_cycle;Max_cycle;Signal;HPM_P1;HPM_P2
2022/08/21 00:01:23;;;;;;;4.60;2.42;;;15.90;99.90;;;;;;5042338;28;20036;-79
2022/08/21 00:03:50;;;;;;;6.68;2.00;;;15.90;99.90;;;;;;5053376;28;20033;-80
2022/08/21 00:06:15;;;;;;;7.72;2.20;;;15.90;99.90;;;;;;5049244;28;20036;-80
2022/08/21 00:08:42;;;;;;;4.38;2.20;;;15.80;99.90;;;;;;5031748;28;20374;-80
2022/08/21 00:11:07;;;;;;;3.35;2.13;;;15.90;99.90;;;;;;5047335;28;20032;-80
2022/08/21 00:13:34;;;;;;;5.20;2.63;;;15.90;99.90;;;;;;5036932;28;20533;-80
2022/08/21 00:16:00;;;;;;;4.57;2.17;;;15.80;99.90;;;;;;5053320;28;20025;-80
2022/08/21 00:18:26;;;;;;;2.55;2.10;;;15.80;99.90;;;;;;5028701;28;20371;-79
2022/08/21 00:20:52;;;;;;;4.28;2.13;;;15.80;99.90;;;;;;5052958;28;20092;-80
2022/08/21 00:23:17;;;;;;;3.85;2.20;;;15.70;99.90;;;;;;5053149;28;20036;-79
2022/08/21 00:25:44;;;;;;;3.00;2.00;;;15.80;99.90;;;;;;5052993;28;20040;-79
2022/08/21 00:28:10;;;;;;;6.22;2.05;;;15.80;99.90;;;;;;5043138;28;20030;-80
2022/08/21 00:30:36;;;;;;;5.90;2.10;;;15.70;99.90;;;;;;5031841;28;20164;-79
2022/08/21 00:33:03;;;;;;;2.78;1.98;;;15.70;99.90;;;;;;5053023;28;20504;-79
2022/08/21 00:35:35;;;;;;;2.47;2.00;;;15.70;99.90;;;;;;5041134;28;20302;-79
2022/08/21 00:38:02;;;;;;;2.58;2.10;;;15.70;99.90;;;;;;5048735;28;20039;-80
2022/08/21 00:40:32;;;;;;;2.85;2.08;;;15.70;99.90;;;;;;5052518;28;20025;-79
2022/08/21 00:42:58;;;;;;;3.90;2.10;;;15.60;99.90;;;;;;5052348;28;20151;-79
2022/08/21 00:45:24;;;;;;;3.22;1.73;;;15.60;99.90;;;;;;5052690;28;20033;-80
2022/08/21 00:47:51;;;;;;;3.35;2.28;;;15.60;99.90;;;;;;5047212;28;20119;-80
2022/08/21 00:50:18;;;;;;;2.45;1.98;;;15.60;99.90;;;;;;5040904;28;20037;-80
2022/08/21 00:52:45;;;;;;;3.38;2.10;;;15.50;99.90;;;;;;5025487;28;20470;-80
2022/08/21 00:55:12;;;;;;;4.00;1.90;;;15.60;99.90;;;;;;5052067;28;20028;-80
2022/08/21 00:57:45;;;;;;;3.90;2.05;;;15.50;99.90;;;;;;5044569;28;20038;-80
2022/08/21 01:00:16;;;;;;;4.18;2.10;;;15.50;99.90;;;;;;5024190;28;20369;-80
2022/08/21 01:02:42;;;;;;;4.03;2.00;;;15.50;99.90;;;;;;5052149;28;20036;-80
2022/08/21 01:05:08;;;;;;;2.83;2.28;;;15.40;99.90;;;;;;5044371;28;20028;-80
2022/08/21 01:07:34;;;;;;;4.20;2.22;;;15.40;99.90;;;;;;5021279;28;20033;-80
2022/08/21 01:10:00;;;;;;;2.42;1.80;;;15.40;99.90;;;;;;5033162;28;20537;-80
2022/08/21 01:12:26;;;;;;;2.92;1.80;;;15.40;99.90;;;;;;5030182;28;20108;-80
2022/08/21 01:14:52;;;;;;;3.55;2.03;;;15.40;99.90;;;;;;5024492;28;20115;-80
2022/08/21 01:17:19;;;;;;;3.22;2.13;;;15.30;99.90;;;;;;5040832;28;20509;-80
2022/08/21 01:19:44;;;;;;;6.72;2.15;;;15.30;99.90;;;;;;5041469;28;20462;-80
2022/08/21 01:22:10;;;;;;;4.22;1.95;;;15.30;99.90;;;;;;5051775;28;20029;-80
2022/08/21 01:24:36;;;;;;;2.83;2.03;;;15.30;99.90;;;;;;5044997;28;20033;-80
2022/08/21 01:27:02;;;;;;;2.80;2.05;;;15.20;99.90;;;;;;5031296;28;20037;-79
2022/08/21 01:29:41;;;;;;;3.97;1.73;;;15.20;99.90;;;;;;5050797;28;20381;-80
2022/08/21 01:32:12;;;;;;;3.33;2.00;;;15.20;99.90;;;;;;5044773;28;20029;-80
2022/08/21 01:34:41;;;;;;;2.72;1.88;;;15.20;99.90;;;;;;5025599;28;20029;-80
2022/08/21 01:37:07;;;;;;;4.75;2.00;;;15.20;99.90;;;;;;5043829;28;20056;-79
2022/08/21 01:39:34;;;;;;;2.22;1.77;;;15.20;99.90;;;;;;5051456;28;20036;-79
2022/08/21 01:42:00;;;;;;;4.55;1.90;;;15.10;99.90;;;;;;5053475;28;20051;-79
2022/08/21 01:44:26;;;;;;;3.47;1.80;;;15.10;99.90;;;;;;5056370;28;20032;-79
2022/08/21 01:46:52;;;;;;;5.00;2.00;;;15.10;99.90;;;;;;5071369;28;20056;-79
2022/08/21 01:49:18;;;;;;;2.53;1.80;;;15.10;99.90;;;;;;5062700;28;20039;-79
2022/08/21 01:51:44;;;;;;;3.33;1.83;;;15.10;99.90;;;;;;5059040;28;20036;-80
2022/08/21 01:54:10;;;;;;;1.90;1.70;;;15.10;99.90;;;;;;5066968;28;20040;-79
2022/08/21 01:56:39;;;;;;;2.63;2.05;;;15.10;99.90;;;;;;5069130;28;20025;-80
2022/08/21 01:59:04;;;;;;;3.97;1.92;;;15.00;99.90;;;;;;5067690;28;20025;-79
2022/08/21 02:01:30;;;;;;;3.55;1.90;;;15.00;99.90;;;;;;5067591;28;20036;-79
2022/08/21 02:03:56;;;;;;;2.95;1.80;;;15.00;99.90;;;;;;5054122;28;20028;-79
2022/08/21 02:06:21;;;;;;;4.03;1.80;;;15.00;99.90;;;;;;5064899;28;20043;-80
2022/08/21 02:08:47;;;;;;;4.80;1.92;;;15.00;99.90;;;;;;5070948;28;20058;-79
2022/08/21 02:11:13;;;;;;;2.13;1.73;;;15.00;99.90;;;;;;5062624;28;20065;-80
2022/08/21 02:13:40;;;;;;;3.58;2.00;;;15.00;99.90;;;;;;5056579;28;20337;-80
2022/08/21 02:16:06;;;;;;;2.92;1.80;;;15.00;99.90;;;;;;5070774;28;20079;-80
2022/08/21 02:18:32;;;;;;;2.97;1.73;;;14.90;99.90;;;;;;5070411;28;20044;-80
2022/08/21 02:20:57;;;;;;;3.05;2.08;;;14.90;99.90;;;;;;5043700;28;20094;-80
2022/08/21 02:23:23;;;;;;;4.00;1.80;;;14.90;99.90;;;;;;5064419;28;20032;-79
2022/08/21 02:25:49;;;;;;;2.58;2.13;;;14.90;99.90;;;;;;5070507;28;20028;-80
2022/08/21 02:28:15;;;;;;;3.50;2.15;;;14.90;99.90;;;;;;5065917;28;20032;-80
2022/08/21 02:30:44;;;;;;;2.00;1.70;;;14.80;99.90;;;;;;5066383;28;20085;-80
2022/08/21 02:33:11;;;;;;;2.30;1.75;;;14.90;99.90;;;;;;5051105;28;20028;-79
2022/08/21 02:35:41;;;;;;;3.97;1.90;;;14.80;99.90;;;;;;5070299;28;20112;-79
2022/08/21 02:38:09;;;;;;;4.30;2.05;;;14.80;99.90;;;;;;5070711;28;20039;-79
2022/08/21 02:40:38;;;;;;;2.38;1.80;;;14.80;99.90;;;;;;5068613;28;20476;-80
2022/08/21 02:43:05;;;;;;;3.75;1.95;;;14.80;99.90;;;;;;5070541;28;20060;-80
2022/08/21 02:45:31;;;;;;;3.30;1.83;;;14.80;99.90;;;;;;5067780;28;20082;-79
2022/08/21 02:48:00;;;;;;;2.33;1.90;;;14.70;99.90;;;;;;5070247;28;20039;-79
2022/08/21 02:50:29;;;;;;;3.42;1.60;;;14.70;99.90;;;;;;5070292;28;20040;-79
2022/08/21 02:52:55;;;;;;;3.92;2.08;;;14.70;99.90;;;;;;5068661;28;20036;-80
2022/08/21 02:55:22;;;;;;;2.08;1.60;;;14.70;99.90;;;;;;5065435;28;20079;-79
2022/08/21 02:57:51;;;;;;;6.53;2.10;;;14.70;99.90;;;;;;5067150;28;20062;-80
2022/08/21 03:00:17;;;;;;;4.70;2.00;;;14.70;99.90;;;;;;5058445;28;20029;-79
2022/08/21 03:02:42;;;;;;;8.43;2.33;;;14.60;99.90;;;;;;5065505;28;20477;-80
2022/08/21 03:05:09;;;;;;;3.50;1.90;;;14.60;99.90;;;;;;5069904;28;20029;-79
2022/08/21 03:07:36;;;;;;;4.95;1.95;;;14.60;99.90;;;;;;5051943;28;20044;-79
2022/08/21 03:10:06;;;;;;;3.70;2.20;;;14.60;99.90;;;;;;5043651;28;20381;-80
2022/08/21 03:12:32;;;;;;;2.20;1.80;;;14.60;99.90;;;;;;5042945;28;20037;-79
2022/08/21 03:14:57;;;;;;;2.97;2.00;;;14.60;99.90;;;;;;5068092;28;20035;-79
2022/08/21 03:17:24;;;;;;;3.38;2.38;;;14.60;99.90;;;;;;5057802;28;20470;-79
2022/08/21 03:19:50;;;;;;;2.58;1.90;;;14.60;99.90;;;;;;5062288;28;20033;-79
2022/08/21 03:22:16;;;;;;;2.97;2.08;;;14.60;99.90;;;;;;5070132;28;20751;-79
2022/08/21 03:24:41;;;;;;;3.05;2.10;;;14.50;99.90;;;;;;5062540;28;20044;-80
2022/08/21 03:27:07;;;;;;;4.82;2.00;;;14.50;99.90;;;;;;5066447;28;20036;-80
2022/08/21 03:29:32;;;;;;;2.17;1.70;;;14.50;99.90;;;;;;5058085;28;20025;-79
2022/08/21 03:31:58;;;;;;;2.70;1.98;;;14.50;99.90;;;;;;5073851;28;20102;-80
2022/08/21 03:34:23;;;;;;;4.50;2.30;;;14.50;99.90;;;;;;5068910;28;20071;-79
2022/08/21 03:36:49;;;;;;;2.50;1.88;;;14.40;99.90;;;;;;5064371;28;20028;-80
2022/08/21 03:39:17;;;;;;;2.55;2.10;;;14.40;99.90;;;;;;5071912;28;20182;-80
2022/08/21 03:41:42;;;;;;;4.43;2.20;;;14.40;99.90;;;;;;5073886;28;20878;-79
2022/08/21 03:44:08;;;;;;;2.17;1.63;;;14.40;99.90;;;;;;5071107;28;20052;-80
2022/08/21 03:46:33;;;;;;;2.20;1.80;;;14.40;99.90;;;;;;5053788;28;20029;-79
2022/08/21 03:48:59;;;;;;;3.65;1.77;;;14.40;99.90;;;;;;5067526;28;20024;-79
2022/08/21 03:51:25;;;;;;;2.67;1.73;;;14.40;99.90;;;;;;5073181;28;20028;-80
2022/08/21 03:53:50;;;;;;;4.47;2.30;;;14.40;99.90;;;;;;5065065;28;20021;-79
2022/08/21 03:56:16;;;;;;;4.05;2.10;;;14.40;99.90;;;;;;5054459;28;20505;-80
2022/08/21 03:58:42;;;;;;;7.60;2.10;;;14.30;99.90;;;;;;5053758;28;20777;-79
2022/08/21 04:01:07;;;;;;;2.35;1.80;;;14.30;99.90;;;;;;5072196;28;20025;-79
2022/08/21 04:03:36;;;;;;;3.95;1.98;;;14.30;99.90;;;;;;5065744;28;20036;-80
2022/08/21 04:06:02;;;;;;;2.42;1.90;;;14.30;99.90;;;;;;5064981;28;20020;-80
2022/08/21 04:08:28;;;;;;;7.15;2.20;;;14.30;99.90;;;;;;5062980;28;20370;-79
2022/08/21 04:10:56;;;;;;;3.20;2.00;;;14.30;99.90;;;;;;5053377;28;20079;-73
2022/08/21 04:13:22;;;;;;;3.47;2.20;;;14.30;99.90;;;;;;5055002;28;20114;-74
2022/08/21 04:15:48;;;;;;;4.45;2.33;;;14.30;99.90;;;;;;5057793;28;20028;-74
2022/08/21 04:18:14;;;;;;;4.47;1.98;;;14.30;99.90;;;;;;5059063;28;20025;-74
2022/08/21 04:20:42;;;;;;;2.92;1.95;;;14.20;99.90;;;;;;5051831;28;20377;-74
2022/08/21 04:23:07;;;;;;;4.18;2.40;;;14.30;99.90;;;;;;5045970;28;20025;-74
2022/08/21 04:25:33;;;;;;;4.10;2.10;;;14.20;99.90;;;;;;5054490;28;20051;-74
2022/08/21 04:27:58;;;;;;;4.38;2.10;;;14.20;99.90;;;;;;5057295;28;20074;-74
2022/08/21 04:30:24;;;;;;;3.08;2.00;;;14.20;99.90;;;;;;5063782;28;20532;-74
2022/08/21 04:32:50;;;;;;;2.67;2.00;;;14.20;99.90;;;;;;5057459;28;20032;-75
2022/08/21 04:35:19;;;;;;;3.90;2.30;;;14.20;99.90;;;;;;5056338;28;20032;-75
2022/08/21 04:37:45;;;;;;;3.92;2.25;;;14.20;99.90;;;;;;5057074;28;20009;-76
2022/08/21 04:40:14;;;;;;;2.53;2.05;;;14.20;99.90;;;;;;5061356;28;20047;-75
2022/08/21 04:42:45;;;;;;;2.30;2.00;;;14.20;99.90;;;;;;5060801;28;20040;-74
2022/08/21 04:45:19;;;;;;;6.15;2.28;;;14.20;99.90;;;;;;5061456;28;20035;-75
2022/08/21 04:47:45;;;;;;;5.72;2.50;;;14.20;99.90;;;;;;5049514;28;20025;-76
2022/08/21 04:50:10;;;;;;;4.90;2.25;;;14.20;99.90;;;;;;5051698;28;20025;-76
2022/08/21 04:52:37;;;;;;;2.35;1.88;;;14.20;99.90;;;;;;5051364;28;20032;-77
2022/08/21 04:55:03;;;;;;;3.80;2.13;;;14.20;99.90;;;;;;5051780;28;20032;-77
2022/08/21 04:57:29;;;;;;;4.07;2.60;;;14.20;99.90;;;;;;5051797;28;20017;-77
2022/08/21 04:59:54;;;;;;;2.65;2.30;;;14.20;99.90;;;;;;5051133;28;20078;-77
2022/08/21 05:02:21;;;;;;;4.65;2.20;;;14.20;99.90;;;;;;5051652;28;20116;-76
2022/08/21 05:04:51;;;;;;;3.03;2.10;;;14.30;99.90;;;;;;5051418;28;20051;-76
2022/08/21 05:07:21;;;;;;;3.13;2.30;;;14.30;99.90;;;;;;5050946;28;20030;-76
2022/08/21 05:09:47;;;;;;;3.20;2.17;;;14.30;99.90;;;;;;5051510;28;20025;-77
2022/08/21 05:12:13;;;;;;;3.80;2.10;;;14.30;99.90;;;;;;5047707;28;20098;-76
2022/08/21 05:14:38;;;;;;;2.97;2.15;;;14.40;99.90;;;;;;5051497;28;20029;-75
2022/08/21 05:17:04;;;;;;;3.22;2.28;;;14.40;99.90;;;;;;5051419;28;20044;-76
2022/08/21 05:19:30;;;;;;;2.25;2.00;;;14.50;99.90;;;;;;5061054;28;20016;-76
2022/08/21 05:21:56;;;;;;;2.35;1.80;;;14.50;99.90;;;;;;5058066;28;20040;-76
2022/08/21 05:24:21;;;;;;;4.28;2.05;;;14.60;99.90;;;;;;5071254;28;20123;-76
2022/08/21 05:26:47;;;;;;;3.75;2.42;;;14.60;99.90;;;;;;5052714;28;20033;-76
2022/08/21 05:29:14;;;;;;;2.70;2.10;;;14.70;99.90;;;;;;5051346;28;20035;-76
2022/08/21 05:31:40;;;;;;;3.10;2.03;;;14.70;99.90;;;;;;5051384;28;20028;-76
2022/08/21 05:34:06;;;;;;;3.90;2.38;;;14.80;99.90;;;;;;5051256;28;20032;-76
2022/08/21 05:36:32;;;;;;;5.10;1.95;;;14.80;99.90;;;;;;5050999;28;20378;-76
2022/08/21 05:38:57;;;;;;;4.82;2.33;;;14.90;99.90;;;;;;5051365;28;20021;-81
2022/08/21 05:41:23;;;;;;;3.70;2.30;;;15.00;99.90;;;;;;5042122;28;20717;-77
2022/08/21 05:43:49;;;;;;;4.57;1.92;;;15.10;99.90;;;;;;5051884;28;20045;-77
2022/08/21 05:46:15;;;;;;;5.00;1.90;;;15.10;99.90;;;;;;5047642;28;20022;-77
2022/08/21 05:48:40;;;;;;;3.47;1.90;;;15.20;99.90;;;;;;5050759;28;20033;-77
2022/08/21 05:51:11;;;;;;;2.70;1.98;;;15.30;99.90;;;;;;5050085;28;20044;-77
2022/08/21 05:53:38;;;;;;;3.85;2.00;;;15.40;99.90;;;;;;5036491;28;20040;-77
2022/08/21 05:56:04;;;;;;;2.50;1.90;;;15.40;99.90;;;;;;5047809;28;20112;-76
2022/08/21 05:58:32;;;;;;;2.60;1.80;;;15.50;99.90;;;;;;5060679;28;20021;-76
2022/08/21 06:00:59;;;;;;;3.50;2.00;;;15.60;99.90;;;;;;5066596;28;20040;-76
2022/08/21 06:03:27;;;;;;;3.83;2.28;;;15.70;99.90;;;;;;5057404;28;20671;-76
2022/08/21 06:05:54;;;;;;;2.38;1.85;;;15.80;99.90;;;;;;5053174;28;20115;-76
2022/08/21 06:08:21;;;;;;;3.05;1.90;;;15.90;99.90;;;;;;5059665;28;20021;-82
2022/08/21 06:10:48;;;;;;;2.33;1.60;;;16.00;99.90;;;;;;5053441;28;20028;-76
2022/08/21 06:13:15;;;;;;;3.10;2.00;;;16.10;99.90;;;;;;5062117;28;20029;-76
2022/08/21 06:15:44;;;;;;;2.95;1.80;;;16.20;99.90;;;;;;5051862;28;20427;-76
2022/08/21 06:18:10;;;;;;;4.38;1.73;;;16.30;99.90;;;;;;5061837;28;20016;-75
2022/08/21 06:20:35;;;;;;;3.67;2.10;;;16.40;99.90;;;;;;5042284;28;20040;-75
2022/08/21 06:23:02;;;;;;;2.63;1.80;;;16.50;99.90;;;;;;5050338;28;20096;-75
2022/08/21 06:25:29;;;;;;;5.40;2.00;;;16.60;99.90;;;;;;5050346;28;20053;-75
2022/08/21 06:28:05;;;;;;;3.72;1.90;;;16.70;99.90;;;;;;5040557;28;20028;-75
2022/08/21 06:30:30;;;;;;;4.30;2.10;;;16.80;99.90;;;;;;5049611;28;20484;-75
2022/08/21 06:32:57;;;;;;;4.28;2.00;;;16.90;99.90;;;;;;5049093;28;20032;-79
2022/08/21 06:35:24;;;;;;;3.45;2.20;;;17.00;99.90;;;;;;5044654;28;20412;-76
2022/08/21 06:37:50;;;;;;;4.75;2.30;;;17.10;99.90;;;;;;5049934;28;20017;-78
2022/08/21 06:40:15;;;;;;;4.38;2.30;;;17.20;99.90;;;;;;5050263;28;20028;-77
2022/08/21 06:42:41;;;;;;;4.28;1.90;;;17.30;99.90;;;;;;5049949;28;20045;-76
2022/08/21 06:45:07;;;;;;;3.05;1.85;;;17.40;99.90;;;;;;5050418;28;20048;-78
2022/08/21 06:47:32;;;;;;;5.70;2.17;;;17.40;99.90;;;;;;5050255;28;20040;-78
2022/08/21 06:49:58;;;;;;;3.38;2.33;;;17.50;99.90;;;;;;5049394;28;20484;-78
2022/08/21 06:52:23;;;;;;;5.40;2.58;;;17.60;99.90;;;;;;5049905;28;20044;-78
2022/08/21 06:54:49;;;;;;;3.10;2.00;;;17.60;99.90;;;;;;5050185;28;20021;-79
2022/08/21 06:57:15;;;;;;;5.65;2.10;;;17.70;99.90;;;;;;5049758;28;20104;-78
2022/08/21 06:59:40;;;;;;;3.97;2.05;;;17.80;99.90;;;;;;5049848;28;20104;-78
2022/08/21 07:02:07;;;;;;;3.80;2.05;;;17.80;99.90;;;;;;5050142;28;20025;-77
2022/08/21 07:04:33;;;;;;;3.28;2.00;;;17.80;99.90;;;;;;5049732;28;20581;-77
2022/08/21 07:06:58;;;;;;;5.22;2.20;;;17.90;99.90;;;;;;5054023;28;20017;-77
2022/08/21 07:09:24;;;;;;;4.80;2.15;;;17.90;99.90;;;;;;5052606;28;20057;-77
2022/08/21 07:11:51;;;;;;;4.35;2.33;;;18.00;99.90;;;;;;5051501;28;20033;-77
2022/08/21 07:14:17;;;;;;;4.15;2.20;;;18.00;99.90;;;;;;5053957;28;20021;-77
2022/08/21 07:16:42;;;;;;;6.38;2.50;;;18.00;99.90;;;;;;5053877;28;20031;-77
2022/08/21 07:19:08;;;;;;;3.47;2.20;;;18.10;99.90;;;;;;5060615;28;20019;-77
2022/08/21 07:21:34;;;;;;;5.93;2.67;;;18.20;99.90;;;;;;5060696;28;20454;-77
2022/08/21 07:23:59;;;;;;;5.22;2.60;;;18.20;99.90;;;;;;5047810;28;20017;-77
2022/08/21 07:26:25;;;;;;;4.70;2.53;;;18.30;99.90;;;;;;5047530;28;20106;-76
2022/08/21 07:28:51;;;;;;;4.40;2.60;;;18.20;99.90;;;;;;5047581;28;20130;-77
2022/08/21 07:31:21;;;;;;;5.88;2.78;;;18.30;99.90;;;;;;5049365;28;20108;-77
2022/08/21 07:33:47;;;;;;;5.88;2.88;;;18.30;99.90;;;;;;5051531;28;20639;-77
2022/08/21 07:36:13;;;;;;;4.43;2.67;;;18.30;99.90;;;;;;5051215;28;20029;-76
2022/08/21 07:38:38;;;;;;;3.47;2.60;;;18.40;99.90;;;;;;5047217;28;20124;-76
2022/08/21 07:41:15;;;;;;;4.38;2.83;;;18.40;99.90;;;;;;5047779;28;20517;-77
2022/08/21 07:43:40;;;;;;;9.90;2.92;;;18.50;99.90;;;;;;5047280;28;20045;-77
2022/08/21 07:46:06;;;;;;;4.68;2.80;;;18.60;99.90;;;;;;5047284;28;20025;-78
2022/08/21 07:48:32;;;;;;;3.78;3.08;;;18.60;99.90;;;;;;5046388;28;20104;-77
2022/08/21 07:50:58;;;;;;;5.32;3.17;;;18.70;99.90;;;;;;5046022;28;20029;-79
2022/08/21 07:53:23;;;;;;;5.30;3.20;;;18.70;99.90;;;;;;5047474;28;20029;-78
2022/08/21 07:55:49;;;;;;;3.47;3.10;;;18.70;99.90;;;;;;5047704;28;20404;-79
2022/08/21 07:58:14;;;;;;;7.93;2.92;;;18.80;99.90;;;;;;5046294;28;20972;-74
2022/08/21 08:00:40;;;;;;;4.53;3.10;;;18.90;99.90;;;;;;5046804;28;20036;-77
2022/08/21 08:03:06;;;;;;;3.60;2.65;;;18.90;99.90;;;;;;5046994;28;20028;-84
2022/08/21 08:05:32;;;;;;;4.97;3.30;;;18.90;99.90;;;;;;5045860;28;20477;-76
2022/08/21 08:07:58;;;;;;;6.25;3.10;;;18.90;99.90;;;;;;5043071;28;20021;-77
2022/08/21 08:10:24;;;;;;;4.90;3.03;;;18.90;99.90;;;;;;5047542;28;20039;-77
2022/08/21 08:12:51;;;;;;;7.50;3.35;;;19.00;99.90;;;;;;5046226;28;20436;-74
2022/08/21 08:15:20;;;;;;;4.43;3.20;;;19.00;99.90;;;;;;5046770;28;20103;-76
2022/08/21 08:17:45;;;;;;;7.55;3.35;;;19.10;99.90;;;;;;5046137;28;20061;-75
2022/08/21 08:20:13;;;;;;;5.60;3.65;;;19.30;99.90;;;;;;5047092;28;20040;-75
2022/08/21 08:22:39;;;;;;;8.57;3.90;;;19.30;99.90;;;;;;5048125;28;20096;-75
2022/08/21 08:25:07;;;;;;;5.10;3.55;;;19.40;99.90;;;;;;5046609;28;20065;-75
2022/08/21 08:27:32;;;;;;;7.63;3.30;;;19.50;99.90;;;;;;5047429;28;20029;-76
2022/08/21 08:29:58;;;;;;;5.72;3.50;;;19.50;99.90;;;;;;5046580;28;20547;-76
2022/08/21 08:32:24;;;;;;;6.47;3.58;;;19.60;99.90;;;;;;5047208;28;20525;-76
2022/08/21 08:34:51;;;;;;;5.78;3.72;;;19.70;99.90;;;;;;5046783;28;20040;-79
2022/08/21 08:37:18;;;;;;;5.53;3.58;;;19.70;99.90;;;;;;5044664;28;20048;-78
2022/08/21 08:39:44;;;;;;;5.82;3.83;;;19.80;99.90;;;;;;5047165;28;20065;-75
2022/08/21 08:42:16;;;;;;;5.28;3.50;;;19.90;99.90;;;;;;5046348;28;20462;-75
2022/08/21 08:44:46;;;;;;;5.70;3.45;;;20.00;99.90;;;;;;5046289;28;20063;-76
2022/08/21 08:47:16;;;;;;;4.32;3.10;;;20.10;99.90;;;;;;5045783;28;20028;-79
2022/08/21 08:50:05;;;;;;;5.50;3.70;;;20.20;99.90;;;;;;5046833;28;20110;-79
2022/08/21 08:52:47;;;;;;;4.32;3.30;;;20.30;99.90;;;;;;5046578;28;20450;-80
2022/08/21 08:55:18;;;;;;;6.13;3.22;;;20.40;99.90;;;;;;5045492;28;20115;-80
2022/08/21 08:57:46;;;;;;;5.97;3.40;;;20.50;99.90;;;;;;5044884;28;20029;-79
2022/08/21 09:00:15;;;;;;;5.95;3.80;;;20.50;99.90;;;;;;5046043;28;20136;-80
2022/08/21 09:02:43;;;;;;;5.28;3.42;;;20.60;99.90;;;;;;5046245;28;20029;-80
2022/08/21 09:05:27;;;;;;;4.65;3.58;;;20.60;99.90;;;;;;5046784;28;20065;-80
2022/08/21 09:08:13;;;;;;;6.90;3.25;;;20.70;99.90;;;;;;5045194;28;20033;-79
2022/08/21 09:10:39;;;;;;;5.47;3.40;;;20.90;99.90;;;;;;5042827;28;20025;-80
2022/08/21 09:13:30;;;;;;;6.97;3.65;;;21.10;99.90;;;;;;5044817;28;20385;-80
2022/08/21 09:16:21;;;;;;;6.95;3.80;;;21.30;99.90;;;;;;5044510;28;20155;-80
2022/08/21 09:19:14;;;;;;;4.90;3.35;;;21.40;99.90;;;;;;5043574;28;20097;-80
2022/08/21 09:22:04;;;;;;;4.50;3.60;;;21.70;99.90;;;;;;5044882;28;20421;-80
2022/08/21 09:24:37;;;;;;;7.38;3.50;;;21.90;99.90;;;;;;5048763;28;20025;-80
2022/08/21 09:27:07;;;;;;;5.35;3.42;;;21.90;99.90;;;;;;5049235;28;20168;-80
2022/08/21 09:29:36;;;;;;;6.53;3.30;;;22.10;99.90;;;;;;5070797;28;20037;-80
2022/08/21 09:32:24;;;;;;;7.00;3.47;;;22.10;99.90;;;;;;5061052;28;20029;-77
2022/08/21 09:34:58;;;;;;;8.05;3.20;;;22.00;99.90;;;;;;5052859;28;20060;-77
2022/08/21 09:37:24;;;;;;;4.97;3.50;;;22.10;99.90;;;;;;5067952;28;20020;-78
2022/08/21 09:39:50;;;;;;;6.07;3.30;;;22.40;99.90;;;;;;5071127;28;20028;-79
2022/08/21 09:42:31;;;;;;;5.22;3.00;;;22.80;99.90;;;;;;5064084;28;20037;-78
2022/08/21 09:45:16;;;;;;;5.38;3.10;;;23.00;99.90;;;;;;5070925;28;20117;-78
2022/08/21 09:47:43;;;;;;;5.90;3.20;;;22.90;99.90;;;;;;5070919;28;20117;-78
2022/08/21 09:50:25;;;;;;;5.63;3.40;;;22.70;99.90;;;;;;5070854;28;20044;-78
2022/08/21 09:52:55;;;;;;;5.80;3.35;;;22.50;99.90;;;;;;5070665;28;20482;-78
2022/08/21 09:58:16;;;;;;;8.25;3.10;;;22.30;99.90;;;;;;5053929;28;20392;-79
2022/08/21 10:00:42;;;;;;;5.25;3.30;;;22.30;99.90;;;;;;5051291;28;20029;-76
2022/08/21 10:03:28;;;;;;;5.03;3.15;;;22.40;99.90;;;;;;5052534;28;20074;-77
2022/08/21 10:06:05;;;;;;;4.53;2.42;;;22.70;99.90;;;;;;5053092;28;20066;-77
2022/08/21 10:08:32;;;;;;;4.68;2.53;;;23.00;99.90;;;;;;5053574;28;20025;-76
2022/08/21 10:11:11;;;;;;;3.45;2.40;;;23.20;99.90;;;;;;5053580;28;20162;-76
2022/08/21 10:13:51;;;;;;;4.65;2.72;;;23.10;99.90;;;;;;5053675;28;20123;-77
2022/08/21 10:16:46;;;;;;;5.35;3.40;;;22.90;99.90;;;;;;5053399;28;20025;-77
2022/08/21 10:19:35;;;;;;;;;;;22.70;99.90;;;;;;5054155;28;20021;-77
2022/08/21 10:22:29;;;;;;;5.22;2.83;;;22.90;99.90;;;;;;5053464;28;19984;-76
2022/08/21 10:25:19;;;;;;;4.22;2.70;;;23.30;99.90;;;;;;5053115;28;20381;-77
2022/08/21 10:27:58;;;;;;;4.20;2.70;;;23.60;99.90;;;;;;5033240;28;20029;-76
2022/08/21 10:30:38;;;;;;;4.43;2.60;;;23.70;99.90;;;;;;5033279;28;20029;-76
2022/08/21 10:33:06;;;;;;;3.97;3.15;;;23.50;99.90;;;;;;5038878;28;20492;-76
2022/08/21 10:35:39;;;;;;;4.93;3.10;;;23.30;99.90;;;;;;5033061;28;20026;-75
2022/08/21 10:38:14;;;;;;;5.30;3.00;;;23.00;99.90;;;;;;5033334;28;20022;-76
2022/08/21 10:40:42;;;;;;;5.00;3.08;;;22.80;99.90;;;;;;5033166;28;20072;-76
2022/08/21 10:43:34;;;;;;;5.07;2.63;;;22.60;99.90;;;;;;5032847;28;20467;-75
2022/08/21 10:46:15;;;;;;;5.05;2.83;;;22.40;99.90;;;;;;5033411;28;20026;-75
2022/08/21 10:48:47;;;;;;;4.32;3.45;;;22.30;99.90;;;;;;5033378;28;20022;-76
2022/08/21 10:51:39;;;;;;;3.53;3.17;;;22.30;99.90;;;;;;5033041;28;20104;-75
2022/08/21 10:54:09;;;;;;;4.70;3.20;;;22.60;99.90;;;;;;5033019;28;20026;-76
2022/08/21 10:56:40;;;;;;;3.53;2.83;;;23.10;99.90;;;;;;5032715;28;20593;-77
2022/08/21 10:59:11;;;;;;;6.55;2.70;;;23.70;99.90;;;;;;5033393;28;20034;-76
2022/08/21 11:01:52;;;;;;;5.63;2.90;;;24.10;99.90;;;;;;5033202;28;20100;-78
2022/08/21 11:04:25;;;;;;;3.20;2.30;;;24.70;99.90;;;;;;5033208;28;20049;-76
2022/08/21 11:07:04;;;;;;;6.20;2.70;;;25.00;99.90;;;;;;5033467;28;20045;-79
2022/08/21 11:09:31;;;;;;;5.35;2.75;;;25.20;99.90;;;;;;5052940;28;20024;-79
2022/08/21 11:12:06;;;;;;;5.10;2.78;;;25.20;99.90;;;;;;5052695;28;20370;-78
2022/08/21 11:15:01;;;;;;;3.38;2.63;;;25.20;99.90;;;;;;5052438;28;20083;-76
2022/08/21 11:17:36;;;;;;;4.15;2.28;;;25.50;99.90;;;;;;5037357;28;20041;-77
2022/08/21 11:20:17;;;;;;;5.47;2.40;;;25.70;99.90;;;;;;5032922;28;20022;-77
2022/08/21 11:23:11;;;;;;;5.75;2.28;;;25.90;99.90;;;;;;5033003;28;20088;-79
2022/08/21 11:25:42;;;;;;;4.18;2.20;;;25.80;99.90;;;;;;5032051;28;20340;-78
2022/08/21 11:28:18;;;;;;;7.05;2.70;;;26.00;99.90;;;;;;5044215;28;20108;-78
2022/08/21 11:31:17;;;;;;;5.05;2.35;;;25.90;99.90;;;;;;5052230;28;20052;-77
2022/08/21 11:34:30;;;;;;;4.65;2.40;;;25.70;99.90;;;;;;5052471;28;20025;-79
2022/08/21 11:37:27;;;;;;;5.07;2.58;;;25.70;99.90;;;;;;5034417;28;20103;-76
2022/08/21 11:40:06;;;;;;;3.00;2.05;;;25.80;99.90;;;;;;5031301;28;20385;-76
2022/08/21 11:43:00;;;;;;;2.80;2.20;;;26.20;99.90;;;;;;5049336;28;20053;-75
2022/08/21 11:45:46;;;;;;;5.43;2.50;;;26.60;99.90;;;;;;5052176;28;20018;-77
2022/08/21 11:48:30;;;;;;;3.75;2.10;;;27.00;99.90;;;;;;5059262;28;20036;-76
2022/08/21 11:50:57;;;;;;;6.55;2.25;;;26.90;99.90;;;;;;5073775;28;20020;-77
2022/08/21 11:53:54;;;;;;;4.90;2.08;;;26.30;99.90;;;;;;5076285;28;20040;-77
2022/08/21 11:56:50;;;;;;;3.10;2.20;;;25.90;99.90;;;;;;5076221;28;20032;-77
2022/08/21 11:59:23;;;;;;;4.45;2.05;;;26.00;99.90;;;;;;5076652;28;20024;-78
2022/08/21 12:01:51;;;;;;;3.35;2.22;;;26.20;99.90;;;;;;5064510;28;20017;-78
2022/08/21 12:04:17;;;;;;;4.53;2.20;;;26.30;99.90;;;;;;5056647;28;20017;-78
2022/08/21 12:06:42;;;;;;;5.45;2.78;;;26.90;99.90;;;;;;5056207;28;20095;-77
2022/08/21 12:09:36;;;;;;;3.58;2.10;;;27.30;99.90;;;;;;5056546;28;20078;-80
2022/08/21 12:12:05;;;;;;;5.50;2.33;;;27.60;99.90;;;;;;5055965;28;20078;-77
2022/08/21 12:14:49;;;;;;;4.05;2.80;;;27.30;99.90;;;;;;5055649;28;20054;-77
2022/08/21 12:17:24;;;;;;;23.75;10.45;;;26.90;99.90;;;;;;5056019;28;20082;-78
2022/08/21 12:19:59;;;;;;;;;;;26.50;99.90;;;;;;5056730;28;20437;-79
2022/08/21 12:22:39;;;;;;;3.70;2.10;;;26.40;99.90;;;;;;5055816;28;19955;-80
2022/08/21 12:25:15;;;;;;;5.80;2.35;;;26.40;99.90;;;;;;5051853;28;20104;-79
2022/08/21 12:28:01;;;;;;;3.60;2.17;;;26.30;99.90;;;;;;5035247;28;20498;-76
2022/08/21 12:30:26;;;;;;;4.43;2.00;;;26.40;99.90;;;;;;5057880;28;21596;-78
2022/08/21 12:33:02;;;;;;;4.75;2.38;;;26.90;99.90;;;;;;5051884;28;20051;-79
2022/08/21 12:35:37;;;;;;;5.43;2.20;;;27.30;99.90;;;;;;5050321;28;20061;-81
2022/08/21 12:38:08;;;;;;;;;;;27.50;99.90;;;;;;5048435;28;20043;-81
2022/08/21 12:40:41;;;;;;;6.25;2.20;;;27.80;99.90;;;;;;5046007;28;19913;-82
2022/08/21 12:43:14;;;;;;;3.65;1.80;;;28.20;99.90;;;;;;5053933;28;20094;-79
2022/08/21 12:45:46;;;;;;;5.10;2.20;;;28.60;99.90;;;;;;5055553;28;20021;-78
2022/08/21 12:48:50;;;;;;;3.85;1.80;;;28.60;99.90;;;;;;5055567;28;20042;-80
2022/08/21 12:51:25;;;;;;;3.83;2.17;;;28.30;99.90;;;;;;5056174;28;20029;-84
2022/08/21 12:53:55;;;;;;;4.22;1.80;;;27.60;99.90;;;;;;5055479;28;20492;-81
2022/08/21 12:56:23;;;;;;;6.43;2.17;;;27.00;99.90;;;;;;5055581;28;20032;-79
2022/08/21 12:59:03;;;;;;;3.85;1.98;;;26.30;99.90;;;;;;5055483;28;20083;-79
2022/08/21 13:01:34;;;;;;;3.75;2.00;;;26.10;99.90;;;;;;5055160;28;20099;-78
2022/08/21 13:04:09;;;;;;;3.90;2.00;;;26.20;99.90;;;;;;5054085;28;20017;-79
2022/08/21 13:06:39;;;;;;;;;;;26.50;99.90;;;;;;5055614;28;20059;-77